首页
METAR-TAF:

METAR-TAF

机场 :

Pompano Beach Airpark

龐帕諾比奇, 佛罗里达州, 美国

纬度: 26-14-44N, 经度: 080-06-41W, 海拔: 6米

当前天气观测

该预报发布于26分钟前的16:53 UTC
风速14节,风向东南
温度 28°C
湿度 89%
气压 1017 hPa
能見度: 16.1公里
散云层高于2200英尺
多云层高于2900英尺

METAR: KPMP 051653Z 14014KT 10SM SCT022 BKN029 28/26 A3003 RMK AO2 SLP171 T02830261 $

时间: 13:19 (17:19 UTC)


TAF: 丢失

超过4000个机场的气象观测和天气预报(METAR&TAF报告)。

可查询的气象台以黄色和红色小点在地图上表示。

将鼠标移到小点上方,可查看气象台名称。

然后点击查看天气观测和预报。

如需切换地图:点击带黑十字的绿色按钮放大地图;点击带横线的绿色按钮缩小地图;或者点击绿色箭头查看邻近地区的地图。


METAR-TAF: